sensor_id;sensor_type;location;lat;lon;timestamp;pressure;altitude;pressure_sealevel;temperature
12918;BMP180;6526;54.312;13.092;2022-12-04T00:00:23;102825.00;;;4.00
12918;BMP180;6526;54.312;13.092;2022-12-04T00:02:49;102829.00;;;4.10
12918;BMP180;6526;54.312;13.092;2022-12-04T00:05:15;102832.00;;;3.80
12918;BMP180;6526;54.312;13.092;2022-12-04T00:07:41;102828.00;;;3.80
12918;BMP180;6526;54.312;13.092;2022-12-04T00:10:09;102836.00;;;3.80
12918;BMP180;6526;54.312;13.092;2022-12-04T00:12:35;102840.00;;;3.90
12918;BMP180;6526;54.312;13.092;2022-12-04T00:15:01;102836.00;;;4.10
12918;BMP180;6526;54.312;13.092;2022-12-04T00:17:27;102833.00;;;4.10
12918;BMP180;6526;54.312;13.092;2022-12-04T00:19:53;102832.00;;;4.00
12918;BMP180;6526;54.312;13.092;2022-12-04T00:22:19;102829.00;;;4.00
12918;BMP180;6526;54.312;13.092;2022-12-04T00:24:46;102834.00;;;4.00
12918;BMP180;6526;54.312;13.092;2022-12-04T00:27:12;102835.00;;;3.90
12918;BMP180;6526;54.312;13.092;2022-12-04T00:29:38;102832.00;;;3.90
12918;BMP180;6526;54.312;13.092;2022-12-04T00:32:04;102834.00;;;3.90
12918;BMP180;6526;54.312;13.092;2022-12-04T00:34:30;102829.00;;;3.90
12918;BMP180;6526;54.312;13.092;2022-12-04T00:36:56;102835.00;;;3.90
12918;BMP180;6526;54.312;13.092;2022-12-04T00:39:22;102832.00;;;4.00
12918;BMP180;6526;54.312;13.092;2022-12-04T00:41:48;102833.00;;;4.00
12918;BMP180;6526;54.312;13.092;2022-12-04T00:44:14;102825.00;;;4.00
12918;BMP180;6526;54.312;13.092;2022-12-04T00:46:40;102808.00;;;3.80
12918;BMP180;6526;54.312;13.092;2022-12-04T00:49:06;102811.00;;;3.60
12918;BMP180;6526;54.312;13.092;2022-12-04T00:51:32;102806.00;;;3.80
12918;BMP180;6526;54.312;13.092;2022-12-04T00:53:58;102818.00;;;4.10
12918;BMP180;6526;54.312;13.092;2022-12-04T00:56:26;102817.00;;;4.20
12918;BMP180;6526;54.312;13.092;2022-12-04T00:58:58;102817.00;;;4.20
12918;BMP180;6526;54.312;13.092;2022-12-04T01:01:25;102809.00;;;4.20
12918;BMP180;6526;54.312;13.092;2022-12-04T01:03:52;102806.00;;;4.10
12918;BMP180;6526;54.312;13.092;2022-12-04T01:06:27;102819.00;;;4.00
12918;BMP180;6526;54.312;13.092;2022-12-04T01:08:55;102812.00;;;4.00
12918;BMP180;6526;54.312;13.092;2022-12-04T01:11:22;102809.00;;;4.00
12918;BMP180;6526;54.312;13.092;2022-12-04T01:13:49;102813.00;;;3.80
12918;BMP180;6526;54.312;13.092;2022-12-04T01:16:22;102813.00;;;3.90
12918;BMP180;6526;54.312;13.092;2022-12-04T01:18:48;102814.00;;;3.90
12918;BMP180;6526;54.312;13.092;2022-12-04T01:21:15;102806.00;;;3.80
12918;BMP180;6526;54.312;13.092;2022-12-04T01:23:41;102809.00;;;3.80
12918;BMP180;6526;54.312;13.092;2022-12-04T01:26:08;102804.00;;;3.80
12918;BMP180;6526;54.312;13.092;2022-12-04T01:28:35;102808.00;;;3.80
12918;BMP180;6526;54.312;13.092;2022-12-04T01:33:30;102797.00;;;3.80
12918;BMP180;6526;54.312;13.092;2022-12-04T01:35:58;102796.00;;;3.80
12918;BMP180;6526;54.312;13.092;2022-12-04T01:38:25;102788.00;;;3.80
12918;BMP180;6526;54.312;13.092;2022-12-04T01:40:53;102790.00;;;3.70
12918;BMP180;6526;54.312;13.092;2022-12-04T01:43:20;102795.00;;;3.80
12918;BMP180;6526;54.312;13.092;2022-12-04T01:45:48;102787.00;;;3.80
12918;BMP180;6526;54.312;13.092;2022-12-04T01:48:29;102797.00;;;3.80
12918;BMP180;6526;54.312;13.092;2022-12-04T01:51:07;102791.00;;;3.70
12918;BMP180;6526;54.312;13.092;2022-12-04T01:53:37;102803.00;;;3.80
12918;BMP180;6526;54.312;13.092;2022-12-04T01:56:05;102796.00;;;3.80
12918;BMP180;6526;54.312;13.092;2022-12-04T01:58:35;102804.00;;;3.90
12918;BMP180;6526;54.312;13.092;2022-12-04T02:01:04;102797.00;;;4.00
12918;BMP180;6526;54.312;13.092;2022-12-04T02:03:31;102791.00;;;4.00
12918;BMP180;6526;54.312;13.092;2022-12-04T02:05:57;102786.00;;;4.00
12918;BMP180;6526;54.312;13.092;2022-12-04T02:08:24;102792.00;;;4.00
12918;BMP180;6526;54.312;13.092;2022-12-04T02:13:52;102793.00;;;4.00
12918;BMP180;6526;54.312;13.092;2022-12-04T02:19:30;102784.00;;;4.10
12918;BMP180;6526;54.312;13.092;2022-12-04T02:21:59;102784.00;;;4.00
12918;BMP180;6526;54.312;13.092;2022-12-04T02:24:46;102774.00;;;4.10
12918;BMP180;6526;54.312;13.092;2022-12-04T02:30:12;102781.00;;;4.00
12918;BMP180;6526;54.312;13.092;2022-12-04T02:32:40;102772.00;;;4.00
12918;BMP180;6526;54.312;13.092;2022-12-04T02:35:23;102771.00;;;4.10
12918;BMP180;6526;54.312;13.092;2022-12-04T02:38:05;102774.00;;;4.00
12918;BMP180;6526;54.312;13.092;2022-12-04T02:40:56;102785.00;;;4.00
12918;BMP180;6526;54.312;13.092;2022-12-04T02:43:31;102776.00;;;4.00
12918;BMP180;6526;54.312;13.092;2022-12-04T02:46:13;102774.00;;;4.10
12918;BMP180;6526;54.312;13.092;2022-12-04T02:48:42;102771.00;;;4.00
12918;BMP180;6526;54.312;13.092;2022-12-04T02:51:12;102770.00;;;4.10
12918;BMP180;6526;54.312;13.092;2022-12-04T02:53:43;102781.00;;;4.30
12918;BMP180;6526;54.312;13.092;2022-12-04T02:56:17;102763.00;;;4.20
12918;BMP180;6526;54.312;13.092;2022-12-04T02:58:50;102765.00;;;4.30
12918;BMP180;6526;54.312;13.092;2022-12-04T03:01:22;102766.00;;;4.20
12918;BMP180;6526;54.312;13.092;2022-12-04T03:03:58;102773.00;;;4.00
12918;BMP180;6526;54.312;13.092;2022-12-04T03:06:28;102767.00;;;4.00
12918;BMP180;6526;54.312;13.092;2022-12-04T03:09:11;102765.00;;;4.00
12918;BMP180;6526;54.312;13.092;2022-12-04T03:11:42;102764.00;;;4.00
12918;BMP180;6526;54.312;13.092;2022-12-04T03:14:18;102768.00;;;4.10
12918;BMP180;6526;54.312;13.092;2022-12-04T03:16:48;102769.00;;;4.10
12918;BMP180;6526;54.312;13.092;2022-12-04T03:19:23;102764.00;;;4.20
12918;BMP180;6526;54.312;13.092;2022-12-04T03:21:58;102776.00;;;4.30
12918;BMP180;6526;54.312;13.092;2022-12-04T03:24:35;102767.00;;;4.40
12918;BMP180;6526;54.312;13.092;2022-12-04T03:27:15;102765.00;;;4.50
12918;BMP180;6526;54.312;13.092;2022-12-04T03:29:49;102762.00;;;4.40
12918;BMP180;6526;54.312;13.092;2022-12-04T03:32:20;102777.00;;;4.50
12918;BMP180;6526;54.312;13.092;2022-12-04T03:35:02;102763.00;;;4.50
12918;BMP180;6526;54.312;13.092;2022-12-04T03:38:00;102769.00;;;4.50
12918;BMP180;6526;54.312;13.092;2022-12-04T03:41:01;102763.00;;;4.50
12918;BMP180;6526;54.312;13.092;2022-12-04T03:46:23;102754.00;;;4.60
12918;BMP180;6526;54.312;13.092;2022-12-04T03:49:12;102755.00;;;4.50
12918;BMP180;6526;54.312;13.092;2022-12-04T03:52:00;102766.00;;;4.40
12918;BMP180;6526;54.312;13.092;2022-12-04T03:54:32;102758.00;;;4.60
12918;BMP180;6526;54.312;13.092;2022-12-04T03:57:07;102752.00;;;4.60
12918;BMP180;6526;54.312;13.092;2022-12-04T03:59:46;102760.00;;;4.60
12918;BMP180;6526;54.312;13.092;2022-12-04T04:02:16;102751.00;;;4.60
12918;BMP180;6526;54.312;13.092;2022-12-04T04:04:48;102750.00;;;4.60
12918;BMP180;6526;54.312;13.092;2022-12-04T04:07:42;102744.00;;;4.70
12918;BMP180;6526;54.312;13.092;2022-12-04T04:10:20;102738.00;;;4.70
12918;BMP180;6526;54.312;13.092;2022-12-04T04:13:00;102739.00;;;4.60
12918;BMP180;6526;54.312;13.092;2022-12-04T04:15:49;102739.00;;;4.50
12918;BMP180;6526;54.312;13.092;2022-12-04T04:18:38;102737.00;;;4.70
12918;BMP180;6526;54.312;13.092;2022-12-04T04:21:24;102739.00;;;4.70
12918;BMP180;6526;54.312;13.092;2022-12-04T04:24:21;102733.00;;;4.70
12918;BMP180;6526;54.312;13.092;2022-12-04T04:26:50;102744.00;;;4.70
12918;BMP180;6526;54.312;13.092;2022-12-04T04:29:16;102742.00;;;4.70
12918;BMP180;6526;54.312;13.092;2022-12-04T04:31:48;102754.00;;;4.70
12918;BMP180;6526;54.312;13.092;2022-12-04T04:34:28;102742.00;;;4.70
12918;BMP180;6526;54.312;13.092;2022-12-04T04:37:32;102746.00;;;4.80
12918;BMP180;6526;54.312;13.092;2022-12-04T04:45:46;102731.00;;;4.80
12918;BMP180;6526;54.312;13.092;2022-12-04T04:48:28;102741.00;;;4.80
12918;BMP180;6526;54.312;13.092;2022-12-04T04:50:58;102723.00;;;4.90
12918;BMP180;6526;54.312;13.092;2022-12-04T04:53:38;102724.00;;;4.80
12918;BMP180;6526;54.312;13.092;2022-12-04T04:56:06;102729.00;;;4.80
12918;BMP180;6526;54.312;13.092;2022-12-04T04:58:32;102734.00;;;4.80
12918;BMP180;6526;54.312;13.092;2022-12-04T05:01:00;102727.00;;;5.00
12918;BMP180;6526;54.312;13.092;2022-12-04T05:03:27;102733.00;;;4.90
12918;BMP180;6526;54.312;13.092;2022-12-04T05:05:53;102736.00;;;4.90
12918;BMP180;6526;54.312;13.092;2022-12-04T05:08:20;102737.00;;;4.80
12918;BMP180;6526;54.312;13.092;2022-12-04T05:10:46;102738.00;;;4.80
12918;BMP180;6526;54.312;13.092;2022-12-04T05:13:13;102737.00;;;4.80
12918;BMP180;6526;54.312;13.092;2022-12-04T05:15:40;102740.00;;;4.80
12918;BMP180;6526;54.312;13.092;2022-12-04T05:18:06;102733.00;;;4.80
12918;BMP180;6526;54.312;13.092;2022-12-04T05:20:32;102732.00;;;4.90
12918;BMP180;6526;54.312;13.092;2022-12-04T05:22:58;102729.00;;;5.00
12918;BMP180;6526;54.312;13.092;2022-12-04T05:25:24;102741.00;;;5.10
12918;BMP180;6526;54.312;13.092;2022-12-04T05:27:51;102736.00;;;5.00
12918;BMP180;6526;54.312;13.092;2022-12-04T05:30:17;102732.00;;;5.00
12918;BMP180;6526;54.312;13.092;2022-12-04T05:32:43;102726.00;;;4.90
12918;BMP180;6526;54.312;13.092;2022-12-04T05:35:10;102743.00;;;5.00
12918;BMP180;6526;54.312;13.092;2022-12-04T05:37:37;102744.00;;;5.00
12918;BMP180;6526;54.312;13.092;2022-12-04T05:40:04;102747.00;;;5.00
12918;BMP180;6526;54.312;13.092;2022-12-04T05:42:30;102737.00;;;5.00
12918;BMP180;6526;54.312;13.092;2022-12-04T05:44:56;102742.00;;;5.00
12918;BMP180;6526;54.312;13.092;2022-12-04T05:47:22;102737.00;;;5.20
12918;BMP180;6526;54.312;13.092;2022-12-04T05:49:48;102737.00;;;5.20
12918;BMP180;6526;54.312;13.092;2022-12-04T05:52:14;102738.00;;;5.20
12918;BMP180;6526;54.312;13.092;2022-12-04T05:54:40;102724.00;;;5.10
12918;BMP180;6526;54.312;13.092;2022-12-04T05:57:07;102733.00;;;5.20
12918;BMP180;6526;54.312;13.092;2022-12-04T05:59:33;102736.00;;;5.20
12918;BMP180;6526;54.312;13.092;2022-12-04T06:01:59;102732.00;;;5.30
12918;BMP180;6526;54.312;13.092;2022-12-04T06:04:25;102727.00;;;5.40
12918;BMP180;6526;54.312;13.092;2022-12-04T06:06:53;102724.00;;;5.40
12918;BMP180;6526;54.312;13.092;2022-12-04T06:09:19;102723.00;;;5.40
12918;BMP180;6526;54.312;13.092;2022-12-04T06:11:45;102719.00;;;5.40
12918;BMP180;6526;54.312;13.092;2022-12-04T06:14:14;102723.00;;;5.50
12918;BMP180;6526;54.312;13.092;2022-12-04T06:16:42;102726.00;;;5.50
12918;BMP180;6526;54.312;13.092;2022-12-04T06:19:12;102731.00;;;5.40
12918;BMP180;6526;54.312;13.092;2022-12-04T06:21:41;102727.00;;;5.50
12918;BMP180;6526;54.312;13.092;2022-12-04T06:24:09;102744.00;;;5.40
12918;BMP180;6526;54.312;13.092;2022-12-04T06:26:37;102737.00;;;5.40
12918;BMP180;6526;54.312;13.092;2022-12-04T06:29:03;102735.00;;;5.50
12918;BMP180;6526;54.312;13.092;2022-12-04T06:31:29;102743.00;;;5.40
12918;BMP180;6526;54.312;13.092;2022-12-04T06:33:56;102738.00;;;5.60
12918;BMP180;6526;54.312;13.092;2022-12-04T06:36:23;102741.00;;;5.60
12918;BMP180;6526;54.312;13.092;2022-12-04T06:38:50;102735.00;;;5.60
12918;BMP180;6526;54.312;13.092;2022-12-04T06:41:19;102737.00;;;5.60
12918;BMP180;6526;54.312;13.092;2022-12-04T06:43:45;102736.00;;;5.60
12918;BMP180;6526;54.312;13.092;2022-12-04T06:46:14;102739.00;;;5.70
12918;BMP180;6526;54.312;13.092;2022-12-04T06:48:41;102747.00;;;5.70
12918;BMP180;6526;54.312;13.092;2022-12-04T06:51:11;102744.00;;;5.60
12918;BMP180;6526;54.312;13.092;2022-12-04T06:53:39;102748.00;;;5.70
12918;BMP180;6526;54.312;13.092;2022-12-04T06:56:07;102754.00;;;5.70
12918;BMP180;6526;54.312;13.092;2022-12-04T06:58:34;102755.00;;;5.70
12918;BMP180;6526;54.312;13.092;2022-12-04T07:01:09;102754.00;;;5.70
12918;BMP180;6526;54.312;13.092;2022-12-04T07:03:36;102760.00;;;5.70
12918;BMP180;6526;54.312;13.092;2022-12-04T07:06:12;102750.00;;;5.70
12918;BMP180;6526;54.312;13.092;2022-12-04T07:08:38;102749.00;;;5.60
12918;BMP180;6526;54.312;13.092;2022-12-04T07:11:04;102751.00;;;5.60
12918;BMP180;6526;54.312;13.092;2022-12-04T07:13:30;102756.00;;;5.70
12918;BMP180;6526;54.312;13.092;2022-12-04T07:16:03;102761.00;;;5.70
12918;BMP180;6526;54.312;13.092;2022-12-04T07:18:29;102752.00;;;5.70
12918;BMP180;6526;54.312;13.092;2022-12-04T07:20:55;102758.00;;;5.80
12918;BMP180;6526;54.312;13.092;2022-12-04T07:23:22;102757.00;;;5.80
12918;BMP180;6526;54.312;13.092;2022-12-04T07:25:48;102754.00;;;6.00
12918;BMP180;6526;54.312;13.092;2022-12-04T07:28:14;102755.00;;;6.00
12918;BMP180;6526;54.312;13.092;2022-12-04T07:30:40;102753.00;;;6.00
12918;BMP180;6526;54.312;13.092;2022-12-04T07:33:06;102758.00;;;6.00
12918;BMP180;6526;54.312;13.092;2022-12-04T07:35:32;102760.00;;;6.10
12918;BMP180;6526;54.312;13.092;2022-12-04T07:37:58;102744.00;;;6.10
12918;BMP180;6526;54.312;13.092;2022-12-04T07:40:24;102752.00;;;6.10
12918;BMP180;6526;54.312;13.092;2022-12-04T07:42:50;102758.00;;;6.20
12918;BMP180;6526;54.312;13.092;2022-12-04T07:45:16;102758.00;;;6.10
12918;BMP180;6526;54.312;13.092;2022-12-04T07:47:42;102753.00;;;6.20
12918;BMP180;6526;54.312;13.092;2022-12-04T07:50:08;102744.00;;;6.30
12918;BMP180;6526;54.312;13.092;2022-12-04T07:52:38;102754.00;;;6.40
12918;BMP180;6526;54.312;13.092;2022-12-04T07:55:06;102748.00;;;6.30
12918;BMP180;6526;54.312;13.092;2022-12-04T07:57:32;102744.00;;;6.30
12918;BMP180;6526;54.312;13.092;2022-12-04T07:59:59;102733.00;;;6.30
12918;BMP180;6526;54.312;13.092;2022-12-04T08:02:25;102738.00;;;6.30
12918;BMP180;6526;54.312;13.092;2022-12-04T08:04:51;102739.00;;;6.30
12918;BMP180;6526;54.312;13.092;2022-12-04T08:07:17;102740.00;;;6.50
12918;BMP180;6526;54.312;13.092;2022-12-04T08:09:43;102738.00;;;6.40
12918;BMP180;6526;54.312;13.092;2022-12-04T08:12:09;102748.00;;;6.40
12918;BMP180;6526;54.312;13.092;2022-12-04T08:14:35;102740.00;;;6.40
12918;BMP180;6526;54.312;13.092;2022-12-04T08:17:01;102733.00;;;6.40
12918;BMP180;6526;54.312;13.092;2022-12-04T08:19:28;102741.00;;;6.40
12918;BMP180;6526;54.312;13.092;2022-12-04T08:21:54;102730.00;;;6.50
12918;BMP180;6526;54.312;13.092;2022-12-04T08:24:20;102732.00;;;6.60
12918;BMP180;6526;54.312;13.092;2022-12-04T08:26:46;102731.00;;;6.70
12918;BMP180;6526;54.312;13.092;2022-12-04T08:29:12;102733.00;;;6.60
12918;BMP180;6526;54.312;13.092;2022-12-04T08:31:38;102744.00;;;6.70
12918;BMP180;6526;54.312;13.092;2022-12-04T08:34:06;102737.00;;;6.70
12918;BMP180;6526;54.312;13.092;2022-12-04T08:36:33;102752.00;;;6.70
12918;BMP180;6526;54.312;13.092;2022-12-04T08:38:59;102747.00;;;6.70
12918;BMP180;6526;54.312;13.092;2022-12-04T08:41:26;102748.00;;;6.70
12918;BMP180;6526;54.312;13.092;2022-12-04T08:43:53;102748.00;;;6.70
12918;BMP180;6526;54.312;13.092;2022-12-04T08:46:21;102750.00;;;6.70
12918;BMP180;6526;54.312;13.092;2022-12-04T08:48:48;102745.00;;;6.70
12918;BMP180;6526;54.312;13.092;2022-12-04T08:51:19;102747.00;;;6.70
12918;BMP180;6526;54.312;13.092;2022-12-04T08:53:46;102752.00;;;6.70
12918;BMP180;6526;54.312;13.092;2022-12-04T08:56:12;102736.00;;;6.80
12918;BMP180;6526;54.312;13.092;2022-12-04T08:58:38;102744.00;;;6.80
12918;BMP180;6526;54.312;13.092;2022-12-04T09:01:07;102753.00;;;7.00
12918;BMP180;6526;54.312;13.092;2022-12-04T09:03:33;102740.00;;;6.90
12918;BMP180;6526;54.312;13.092;2022-12-04T09:06:01;102756.00;;;6.90
12918;BMP180;6526;54.312;13.092;2022-12-04T09:08:27;102746.00;;;6.90
12918;BMP180;6526;54.312;13.092;2022-12-04T09:10:54;102747.00;;;7.00
12918;BMP180;6526;54.312;13.092;2022-12-04T09:13:20;102751.00;;;7.00
12918;BMP180;6526;54.312;13.092;2022-12-04T09:15:46;102750.00;;;7.00
12918;BMP180;6526;54.312;13.092;2022-12-04T09:18:12;102742.00;;;7.10
12918;BMP180;6526;54.312;13.092;2022-12-04T09:20:38;102741.00;;;7.10
12918;BMP180;6526;54.312;13.092;2022-12-04T09:23:05;102753.00;;;7.10
12918;BMP180;6526;54.312;13.092;2022-12-04T09:25:34;102763.00;;;7.00
12918;BMP180;6526;54.312;13.092;2022-12-04T09:28:00;102763.00;;;7.00
12918;BMP180;6526;54.312;13.092;2022-12-04T09:30:26;102757.00;;;7.00
12918;BMP180;6526;54.312;13.092;2022-12-04T09:32:52;102744.00;;;7.20
12918;BMP180;6526;54.312;13.092;2022-12-04T09:35:18;102751.00;;;7.10
12918;BMP180;6526;54.312;13.092;2022-12-04T09:37:44;102754.00;;;7.00
12918;BMP180;6526;54.312;13.092;2022-12-04T09:40:25;102755.00;;;7.10
12918;BMP180;6526;54.312;13.092;2022-12-04T09:43:26;102757.00;;;7.10
12918;BMP180;6526;54.312;13.092;2022-12-04T09:46:00;102746.00;;;7.20
12918;BMP180;6526;54.312;13.092;2022-12-04T09:48:33;102746.00;;;7.10
12918;BMP180;6526;54.312;13.092;2022-12-04T09:51:00;102739.00;;;7.00
12918;BMP180;6526;54.312;13.092;2022-12-04T09:53:59;102738.00;;;7.00
12918;BMP180;6526;54.312;13.092;2022-12-04T09:56:26;102736.00;;;7.10
12918;BMP180;6526;54.312;13.092;2022-12-04T09:58:59;102742.00;;;7.10
12918;BMP180;6526;54.312;13.092;2022-12-04T10:01:33;102737.00;;;7.20
12918;BMP180;6526;54.312;13.092;2022-12-04T10:04:04;102728.00;;;7.10
12918;BMP180;6526;54.312;13.092;2022-12-04T10:06:41;102727.00;;;7.30
12918;BMP180;6526;54.312;13.092;2022-12-04T10:09:20;102725.00;;;7.40
12918;BMP180;6526;54.312;13.092;2022-12-04T10:11:50;102718.00;;;7.30
12918;BMP180;6526;54.312;13.092;2022-12-04T10:25:08;102729.00;;;7.50
12918;BMP180;6526;54.312;13.092;2022-12-04T10:27:55;102720.00;;;7.40
12918;BMP180;6526;54.312;13.092;2022-12-04T10:30:27;102721.00;;;7.50
12918;BMP180;6526;54.312;13.092;2022-12-04T10:35:42;102715.00;;;7.40
12918;BMP180;6526;54.312;13.092;2022-12-04T10:38:22;102701.00;;;7.50
12918;BMP180;6526;54.312;13.092;2022-12-04T10:41:01;102705.00;;;7.40
12918;BMP180;6526;54.312;13.092;2022-12-04T10:43:47;102703.00;;;7.50
12918;BMP180;6526;54.312;13.092;2022-12-04T10:46:25;102697.00;;;7.60
12918;BMP180;6526;54.312;13.092;2022-12-04T10:49:18;102702.00;;;7.60
12918;BMP180;6526;54.312;13.092;2022-12-04T10:51:47;102690.00;;;7.70
12918;BMP180;6526;54.312;13.092;2022-12-04T10:54:33;102694.00;;;7.70
12918;BMP180;6526;54.312;13.092;2022-12-04T10:57:05;102693.00;;;7.70
12918;BMP180;6526;54.312;13.092;2022-12-04T10:59:32;102688.00;;;7.80
12918;BMP180;6526;54.312;13.092;2022-12-04T11:04:27;102676.00;;;7.90
12918;BMP180;6526;54.312;13.092;2022-12-04T11:07:03;102674.00;;;7.90
12918;BMP180;6526;54.312;13.092;2022-12-04T11:09:30;102669.00;;;7.80
12918;BMP180;6526;54.312;13.092;2022-12-04T11:12:14;102663.00;;;7.80
12918;BMP180;6526;54.312;13.092;2022-12-04T11:14:41;102664.00;;;7.90
12918;BMP180;6526;54.312;13.092;2022-12-04T11:17:16;102655.00;;;7.90
12918;BMP180;6526;54.312;13.092;2022-12-04T11:19:42;102663.00;;;7.90
12918;BMP180;6526;54.312;13.092;2022-12-04T11:22:12;102661.00;;;8.10
12918;BMP180;6526;54.312;13.092;2022-12-04T11:24:39;102651.00;;;8.00
12918;BMP180;6526;54.312;13.092;2022-12-04T11:27:16;102655.00;;;8.00
12918;BMP180;6526;54.312;13.092;2022-12-04T11:29:45;102652.00;;;8.00
12918;BMP180;6526;54.312;13.092;2022-12-04T11:32:26;102657.00;;;8.00
12918;BMP180;6526;54.312;13.092;2022-12-04T11:34:58;102658.00;;;8.00
12918;BMP180;6526;54.312;13.092;2022-12-04T11:37:32;102648.00;;;8.00
12918;BMP180;6526;54.312;13.092;2022-12-04T11:39:59;102647.00;;;8.00
12918;BMP180;6526;54.312;13.092;2022-12-04T11:42:28;102648.00;;;7.90
12918;BMP180;6526;54.312;13.092;2022-12-04T11:45:01;102648.00;;;7.90
12918;BMP180;6526;54.312;13.092;2022-12-04T11:47:31;102652.00;;;7.90
12918;BMP180;6526;54.312;13.092;2022-12-04T11:50:09;102649.00;;;7.90
12918;BMP180;6526;54.312;13.092;2022-12-04T11:53:11;102654.00;;;7.80
12918;BMP180;6526;54.312;13.092;2022-12-04T11:55:46;102658.00;;;7.80
12918;BMP180;6526;54.312;13.092;2022-12-04T11:58:50;102654.00;;;7.70
12918;BMP180;6526;54.312;13.092;2022-12-04T12:01:49;102660.00;;;7.60
12918;BMP180;6526;54.312;13.092;2022-12-04T12:10:21;102663.00;;;7.20
12918;BMP180;6526;54.312;13.092;2022-12-04T12:13:19;102660.00;;;7.10
12918;BMP180;6526;54.312;13.092;2022-12-04T12:16:16;102670.00;;;7.00
12918;BMP180;6526;54.312;13.092;2022-12-04T12:19:12;102666.00;;;6.90
12918;BMP180;6526;54.312;13.092;2022-12-04T12:25:26;102685.00;;;7.00
12918;BMP180;6526;54.312;13.092;2022-12-04T12:30:44;102674.00;;;7.00
12918;BMP180;6526;54.312;13.092;2022-12-04T12:33:18;102673.00;;;7.00
12918;BMP180;6526;54.312;13.092;2022-12-04T12:38:45;102660.00;;;6.80
12918;BMP180;6526;54.312;13.092;2022-12-04T12:41:25;102657.00;;;6.90
12918;BMP180;6526;54.312;13.092;2022-12-04T12:44:12;102657.00;;;6.80
12918;BMP180;6526;54.312;13.092;2022-12-04T12:46:43;102652.00;;;6.70
12918;BMP180;6526;54.312;13.092;2022-12-04T12:52:16;102655.00;;;6.80
12918;BMP180;6526;54.312;13.092;2022-12-04T12:54:54;102648.00;;;6.70
12918;BMP180;6526;54.312;13.092;2022-12-04T12:57:35;102651.00;;;6.80
12918;BMP180;6526;54.312;13.092;2022-12-04T13:00:20;102633.00;;;6.80
12918;BMP180;6526;54.312;13.092;2022-12-04T13:02:59;102643.00;;;6.90
12918;BMP180;6526;54.312;13.092;2022-12-04T13:05:36;102648.00;;;6.90
12918;BMP180;6526;54.312;13.092;2022-12-04T13:08:24;102657.00;;;6.90
12918;BMP180;6526;54.312;13.092;2022-12-04T13:11:33;102646.00;;;6.80
12918;BMP180;6526;54.312;13.092;2022-12-04T13:13:59;102642.00;;;6.80
12918;BMP180;6526;54.312;13.092;2022-12-04T13:16:48;102642.00;;;6.60
12918;BMP180;6526;54.312;13.092;2022-12-04T13:19:25;102639.00;;;6.70
12918;BMP180;6526;54.312;13.092;2022-12-04T13:27:49;102627.00;;;6.70
12918;BMP180;6526;54.312;13.092;2022-12-04T13:30:21;102614.00;;;6.70
12918;BMP180;6526;54.312;13.092;2022-12-04T13:33:09;102622.00;;;6.70
12918;BMP180;6526;54.312;13.092;2022-12-04T13:35:46;102625.00;;;6.70
12918;BMP180;6526;54.312;13.092;2022-12-04T13:41:21;102609.00;;;6.80
12918;BMP180;6526;54.312;13.092;2022-12-04T13:43:49;102616.00;;;6.90
12918;BMP180;6526;54.312;13.092;2022-12-04T13:46:35;102616.00;;;7.00
12918;BMP180;6526;54.312;13.092;2022-12-04T13:51:43;102621.00;;;7.00
12918;BMP180;6526;54.312;13.092;2022-12-04T13:56:44;102611.00;;;7.10
12918;BMP180;6526;54.312;13.092;2022-12-04T14:04:59;102606.00;;;6.90
12918;BMP180;6526;54.312;13.092;2022-12-04T14:07:37;102600.00;;;6.80
12918;BMP180;6526;54.312;13.092;2022-12-04T14:10:07;102609.00;;;6.90
12918;BMP180;6526;54.312;13.092;2022-12-04T14:13:00;102613.00;;;6.90
12918;BMP180;6526;54.312;13.092;2022-12-04T14:15:30;102598.00;;;6.90
12918;BMP180;6526;54.312;13.092;2022-12-04T14:20:40;102606.00;;;7.00
12918;BMP180;6526;54.312;13.092;2022-12-04T14:23:26;102597.00;;;7.00
12918;BMP180;6526;54.312;13.092;2022-12-04T14:25:57;102604.00;;;7.00
12918;BMP180;6526;54.312;13.092;2022-12-04T14:36:25;102581.00;;;6.90
12918;BMP180;6526;54.312;13.092;2022-12-04T14:39:13;102589.00;;;7.10
12918;BMP180;6526;54.312;13.092;2022-12-04T14:41:42;102582.00;;;7.00
12918;BMP180;6526;54.312;13.092;2022-12-04T14:44:26;102580.00;;;7.00
12918;BMP180;6526;54.312;13.092;2022-12-04T14:47:14;102589.00;;;7.20
12918;BMP180;6526;54.312;13.092;2022-12-04T14:52:42;102583.00;;;7.30
12918;BMP180;6526;54.312;13.092;2022-12-04T14:55:34;102582.00;;;7.40
12918;BMP180;6526;54.312;13.092;2022-12-04T14:58:03;102583.00;;;7.40
12918;BMP180;6526;54.312;13.092;2022-12-04T15:01:37;102600.00;;;7.30
12918;BMP180;6526;54.312;13.092;2022-12-04T15:03:46;102598.00;;;7.20
12918;BMP180;6526;54.312;13.092;2022-12-04T15:06:20;102607.00;;;7.20
12918;BMP180;6526;54.312;13.092;2022-12-04T15:08:52;102606.00;;;7.10
12918;BMP180;6526;54.312;13.092;2022-12-04T15:11:19;102615.00;;;7.10
12918;BMP180;6526;54.312;13.092;2022-12-04T15:14:12;102598.00;;;7.20
12918;BMP180;6526;54.312;13.092;2022-12-04T15:16:40;102606.00;;;7.30
12918;BMP180;6526;54.312;13.092;2022-12-04T15:19:16;102609.00;;;7.30
12918;BMP180;6526;54.312;13.092;2022-12-04T15:21:43;102603.00;;;7.40
12918;BMP180;6526;54.312;13.092;2022-12-04T15:24:14;102608.00;;;7.50
12918;BMP180;6526;54.312;13.092;2022-12-04T15:26:45;102599.00;;;7.40
12918;BMP180;6526;54.312;13.092;2022-12-04T15:29:21;102610.00;;;7.40
12918;BMP180;6526;54.312;13.092;2022-12-04T15:31:54;102620.00;;;7.40
12918;BMP180;6526;54.312;13.092;2022-12-04T15:34:24;102611.00;;;7.40
12918;BMP180;6526;54.312;13.092;2022-12-04T15:36:57;102621.00;;;7.50
12918;BMP180;6526;54.312;13.092;2022-12-04T15:39:28;102612.00;;;7.60
12918;BMP180;6526;54.312;13.092;2022-12-04T15:42:06;102614.00;;;7.60
12918;BMP180;6526;54.312;13.092;2022-12-04T15:44:45;102605.00;;;7.40
12918;BMP180;6526;54.312;13.092;2022-12-04T15:47:21;102604.00;;;7.30
12918;BMP180;6526;54.312;13.092;2022-12-04T15:49:48;102605.00;;;7.40
12918;BMP180;6526;54.312;13.092;2022-12-04T15:52:17;102607.00;;;7.40
12918;BMP180;6526;54.312;13.092;2022-12-04T15:54:52;102605.00;;;7.40
12918;BMP180;6526;54.312;13.092;2022-12-04T15:57:33;102609.00;;;7.40
12918;BMP180;6526;54.312;13.092;2022-12-04T16:00:02;102611.00;;;7.40
12918;BMP180;6526;54.312;13.092;2022-12-04T16:02:35;102609.00;;;7.30
12918;BMP180;6526;54.312;13.092;2022-12-04T16:05:30;102606.00;;;7.30